sensor_id;sensor_type;location;lat;lon;timestamp;temperature;humidity
1538;DHT22;12022;52.266;10.522;2022-08-20T00:00:14;22.40;99.90
1538;DHT22;12022;52.266;10.522;2022-08-20T00:02:47;22.40;99.90
1538;DHT22;12022;52.266;10.522;2022-08-20T00:05:19;22.30;99.90
1538;DHT22;12022;52.266;10.522;2022-08-20T00:07:46;22.30;99.90
1538;DHT22;12022;52.266;10.522;2022-08-20T00:10:13;22.20;99.90
1538;DHT22;12022;52.266;10.522;2022-08-20T00:12:45;22.20;99.90
1538;DHT22;12022;52.266;10.522;2022-08-20T00:15:14;22.10;99.90
1538;DHT22;12022;52.266;10.522;2022-08-20T00:17:41;22.10;99.90
1538;DHT22;12022;52.266;10.522;2022-08-20T00:20:11;22.10;99.90
1538;DHT22;12022;52.266;10.522;2022-08-20T00:22:38;22.00;99.90
1538;DHT22;12022;52.266;10.522;2022-08-20T00:25:06;22.10;99.90
1538;DHT22;12022;52.266;10.522;2022-08-20T00:27:33;22.00;99.90
1538;DHT22;12022;52.266;10.522;2022-08-20T00:30:02;22.00;99.90
1538;DHT22;12022;52.266;10.522;2022-08-20T00:32:30;21.90;99.90
1538;DHT22;12022;52.266;10.522;2022-08-20T00:34:57;21.90;99.90
1538;DHT22;12022;52.266;10.522;2022-08-20T00:37:24;21.90;99.90
1538;DHT22;12022;52.266;10.522;2022-08-20T00:39:51;21.90;99.90
1538;DHT22;12022;52.266;10.522;2022-08-20T00:42:18;21.90;99.90
1538;DHT22;12022;52.266;10.522;2022-08-20T00:44:46;22.00;99.90
1538;DHT22;12022;52.266;10.522;2022-08-20T00:47:12;21.90;99.90
1538;DHT22;12022;52.266;10.522;2022-08-20T00:49:39;21.90;99.90
1538;DHT22;12022;52.266;10.522;2022-08-20T00:52:12;21.90;99.90
1538;DHT22;12022;52.266;10.522;2022-08-20T00:54:46;21.90;99.90
1538;DHT22;12022;52.266;10.522;2022-08-20T00:57:27;21.90;99.90
1538;DHT22;12022;52.266;10.522;2022-08-20T01:00:19;21.90;99.90
1538;DHT22;12022;52.266;10.522;2022-08-20T01:02:48;21.90;99.90
1538;DHT22;12022;52.266;10.522;2022-08-20T01:05:16;21.90;99.90
1538;DHT22;12022;52.266;10.522;2022-08-20T01:07:44;21.90;99.90
1538;DHT22;12022;52.266;10.522;2022-08-20T01:10:16;21.90;99.90
1538;DHT22;12022;52.266;10.522;2022-08-20T01:12:46;21.90;99.90
1538;DHT22;12022;52.266;10.522;2022-08-20T01:15:21;21.90;99.90
1538;DHT22;12022;52.266;10.522;2022-08-20T01:17:58;22.00;99.90
1538;DHT22;12022;52.266;10.522;2022-08-20T01:20:33;22.00;99.90
1538;DHT22;12022;52.266;10.522;2022-08-20T01:23:15;22.00;99.90
1538;DHT22;12022;52.266;10.522;2022-08-20T01:26:11;22.00;99.90
1538;DHT22;12022;52.266;10.522;2022-08-20T01:28:51;22.00;99.90
1538;DHT22;12022;52.266;10.522;2022-08-20T01:31:23;22.00;99.90
1538;DHT22;12022;52.266;10.522;2022-08-20T01:33:52;21.90;99.90
1538;DHT22;12022;52.266;10.522;2022-08-20T01:36:36;21.90;99.90
1538;DHT22;12022;52.266;10.522;2022-08-20T01:39:13;21.90;99.90
1538;DHT22;12022;52.266;10.522;2022-08-20T01:44:12;21.80;99.90
1538;DHT22;12022;52.266;10.522;2022-08-20T01:46:46;21.70;99.90
1538;DHT22;12022;52.266;10.522;2022-08-20T01:49:15;21.70;99.90
1538;DHT22;12022;52.266;10.522;2022-08-20T01:51:51;21.70;99.90
1538;DHT22;12022;52.266;10.522;2022-08-20T01:54:18;21.70;99.90
1538;DHT22;12022;52.266;10.522;2022-08-20T01:59:24;21.70;99.90
1538;DHT22;12022;52.266;10.522;2022-08-20T02:01:51;21.70;99.90
1538;DHT22;12022;52.266;10.522;2022-08-20T02:04:18;21.60;99.90
1538;DHT22;12022;52.266;10.522;2022-08-20T02:06:53;21.60;99.90
1538;DHT22;12022;52.266;10.522;2022-08-20T02:09:28;21.60;99.90
1538;DHT22;12022;52.266;10.522;2022-08-20T02:11:57;21.60;99.90
1538;DHT22;12022;52.266;10.522;2022-08-20T02:14:27;21.60;99.90
1538;DHT22;12022;52.266;10.522;2022-08-20T02:16:54;21.60;99.90
1538;DHT22;12022;52.266;10.522;2022-08-20T02:19:45;21.60;99.90
1538;DHT22;12022;52.266;10.522;2022-08-20T02:22:36;21.50;99.90
1538;DHT22;12022;52.266;10.522;2022-08-20T02:25:10;21.50;99.90
1538;DHT22;12022;52.266;10.522;2022-08-20T02:27:40;21.50;99.90
1538;DHT22;12022;52.266;10.522;2022-08-20T02:30:14;21.40;99.90
1538;DHT22;12022;52.266;10.522;2022-08-20T02:32:53;21.40;99.90
1538;DHT22;12022;52.266;10.522;2022-08-20T02:35:22;21.30;99.90
1538;DHT22;12022;52.266;10.522;2022-08-20T02:37:50;21.30;99.90
1538;DHT22;12022;52.266;10.522;2022-08-20T02:40:19;21.30;99.90
1538;DHT22;12022;52.266;10.522;2022-08-20T02:43:00;21.20;99.90
1538;DHT22;12022;52.266;10.522;2022-08-20T02:45:30;21.20;99.90
1538;DHT22;12022;52.266;10.522;2022-08-20T02:47:57;21.10;99.90
1538;DHT22;12022;52.266;10.522;2022-08-20T02:50:26;21.10;99.90
1538;DHT22;12022;52.266;10.522;2022-08-20T02:52:53;21.10;99.90
1538;DHT22;12022;52.266;10.522;2022-08-20T02:55:21;21.10;99.90
1538;DHT22;12022;52.266;10.522;2022-08-20T02:57:58;21.10;99.90
1538;DHT22;12022;52.266;10.522;2022-08-20T03:00:28;21.20;99.90
1538;DHT22;12022;52.266;10.522;2022-08-20T03:03:05;21.10;99.90
1538;DHT22;12022;52.266;10.522;2022-08-20T03:05:32;21.10;99.90
1538;DHT22;12022;52.266;10.522;2022-08-20T03:07:59;21.10;99.90
1538;DHT22;12022;52.266;10.522;2022-08-20T03:10:31;21.10;99.90
1538;DHT22;12022;52.266;10.522;2022-08-20T03:13:00;21.10;99.90
1538;DHT22;12022;52.266;10.522;2022-08-20T03:15:32;21.10;99.90
1538;DHT22;12022;52.266;10.522;2022-08-20T03:18:03;21.10;99.90
1538;DHT22;12022;52.266;10.522;2022-08-20T03:20:30;21.20;99.90
1538;DHT22;12022;52.266;10.522;2022-08-20T03:22:58;21.20;99.90
1538;DHT22;12022;52.266;10.522;2022-08-20T03:25:25;21.30;99.90
1538;DHT22;12022;52.266;10.522;2022-08-20T03:27:53;21.30;99.90
1538;DHT22;12022;52.266;10.522;2022-08-20T03:30:23;21.30;99.90
1538;DHT22;12022;52.266;10.522;2022-08-20T03:32:50;21.30;99.90
1538;DHT22;12022;52.266;10.522;2022-08-20T03:35:21;21.30;99.90
1538;DHT22;12022;52.266;10.522;2022-08-20T03:37:49;21.20;99.90
1538;DHT22;12022;52.266;10.522;2022-08-20T03:40:20;21.10;99.90
1538;DHT22;12022;52.266;10.522;2022-08-20T03:42:47;21.00;99.90
1538;DHT22;12022;52.266;10.522;2022-08-20T03:45:14;21.00;99.90
1538;DHT22;12022;52.266;10.522;2022-08-20T03:47:46;20.90;99.90
1538;DHT22;12022;52.266;10.522;2022-08-20T03:50:13;20.90;99.90
1538;DHT22;12022;52.266;10.522;2022-08-20T03:52:53;20.80;99.90
1538;DHT22;12022;52.266;10.522;2022-08-20T03:55:21;20.80;99.90
1538;DHT22;12022;52.266;10.522;2022-08-20T03:57:52;20.70;99.90
1538;DHT22;12022;52.266;10.522;2022-08-20T04:00:23;20.70;99.90
1538;DHT22;12022;52.266;10.522;2022-08-20T04:02:50;20.60;99.90
1538;DHT22;12022;52.266;10.522;2022-08-20T04:05:17;20.60;99.90
1538;DHT22;12022;52.266;10.522;2022-08-20T04:07:44;20.60;99.90
1538;DHT22;12022;52.266;10.522;2022-08-20T04:10:12;20.60;99.90
1538;DHT22;12022;52.266;10.522;2022-08-20T04:12:39;20.80;99.90
1538;DHT22;12022;52.266;10.522;2022-08-20T04:15:19;20.60;99.90
1538;DHT22;12022;52.266;10.522;2022-08-20T04:17:48;20.60;99.90
1538;DHT22;12022;52.266;10.522;2022-08-20T04:20:21;20.60;99.90
1538;DHT22;12022;52.266;10.522;2022-08-20T04:22:50;20.70;99.90
1538;DHT22;12022;52.266;10.522;2022-08-20T04:25:29;20.70;99.90
1538;DHT22;12022;52.266;10.522;2022-08-20T04:28:05;20.70;99.90
1538;DHT22;12022;52.266;10.522;2022-08-20T04:30:32;20.80;99.90
1538;DHT22;12022;52.266;10.522;2022-08-20T04:33:00;20.80;99.90
1538;DHT22;12022;52.266;10.522;2022-08-20T04:35:27;20.80;99.90
1538;DHT22;12022;52.266;10.522;2022-08-20T04:38:06;20.90;99.90
1538;DHT22;12022;52.266;10.522;2022-08-20T04:40:34;20.90;99.90
1538;DHT22;12022;52.266;10.522;2022-08-20T04:43:21;21.00;99.90
1538;DHT22;12022;52.266;10.522;2022-08-20T04:45:52;21.00;99.90
1538;DHT22;12022;52.266;10.522;2022-08-20T04:48:20;21.10;99.90
1538;DHT22;12022;52.266;10.522;2022-08-20T04:50:50;21.10;99.90
1538;DHT22;12022;52.266;10.522;2022-08-20T04:53:20;21.20;99.90
1538;DHT22;12022;52.266;10.522;2022-08-20T04:55:53;21.30;99.90
1538;DHT22;12022;52.266;10.522;2022-08-20T04:58:23;21.40;99.90
1538;DHT22;12022;52.266;10.522;2022-08-20T05:00:54;21.50;99.90
1538;DHT22;12022;52.266;10.522;2022-08-20T05:03:27;21.60;99.90
1538;DHT22;12022;52.266;10.522;2022-08-20T05:05:54;21.70;99.90
1538;DHT22;12022;52.266;10.522;2022-08-20T05:08:23;21.80;99.90
1538;DHT22;12022;52.266;10.522;2022-08-20T05:10:53;21.90;99.90
1538;DHT22;12022;52.266;10.522;2022-08-20T05:13:40;22.00;99.90
1538;DHT22;12022;52.266;10.522;2022-08-20T05:16:08;22.00;99.90
1538;DHT22;12022;52.266;10.522;2022-08-20T05:18:35;22.10;99.90
1538;DHT22;12022;52.266;10.522;2022-08-20T05:21:03;22.10;99.90
1538;DHT22;12022;52.266;10.522;2022-08-20T05:23:36;22.10;99.90
1538;DHT22;12022;52.266;10.522;2022-08-20T05:26:06;22.10;99.90
1538;DHT22;12022;52.266;10.522;2022-08-20T05:28:37;22.10;99.90
1538;DHT22;12022;52.266;10.522;2022-08-20T05:31:26;22.10;99.90
1538;DHT22;12022;52.266;10.522;2022-08-20T05:34:00;22.10;99.90
1538;DHT22;12022;52.266;10.522;2022-08-20T05:36:27;22.10;99.90
1538;DHT22;12022;52.266;10.522;2022-08-20T05:38:55;22.10;99.90
1538;DHT22;12022;52.266;10.522;2022-08-20T05:41:22;22.10;99.90
1538;DHT22;12022;52.266;10.522;2022-08-20T05:43:57;22.10;99.90
1538;DHT22;12022;52.266;10.522;2022-08-20T05:46:27;22.20;99.90
1538;DHT22;12022;52.266;10.522;2022-08-20T05:48:54;22.20;99.90
1538;DHT22;12022;52.266;10.522;2022-08-20T05:51:25;22.30;99.90
1538;DHT22;12022;52.266;10.522;2022-08-20T05:53:52;22.30;99.90
1538;DHT22;12022;52.266;10.522;2022-08-20T05:56:19;22.40;99.90
1538;DHT22;12022;52.266;10.522;2022-08-20T05:58:52;22.40;99.90
1538;DHT22;12022;52.266;10.522;2022-08-20T06:01:19;22.50;99.90
1538;DHT22;12022;52.266;10.522;2022-08-20T06:03:46;22.50;99.90
1538;DHT22;12022;52.266;10.522;2022-08-20T06:06:32;22.60;99.90
1538;DHT22;12022;52.266;10.522;2022-08-20T06:09:15;22.70;99.90
1538;DHT22;12022;52.266;10.522;2022-08-20T06:12:02;22.70;99.90
1538;DHT22;12022;52.266;10.522;2022-08-20T06:14:30;22.90;99.90
1538;DHT22;12022;52.266;10.522;2022-08-20T06:17:06;23.10;99.90
1538;DHT22;12022;52.266;10.522;2022-08-20T06:19:35;23.30;99.90
1538;DHT22;12022;52.266;10.522;2022-08-20T06:22:04;23.50;99.90
1538;DHT22;12022;52.266;10.522;2022-08-20T06:24:46;23.60;99.90
1538;DHT22;12022;52.266;10.522;2022-08-20T06:27:14;23.50;99.90
1538;DHT22;12022;52.266;10.522;2022-08-20T06:29:41;23.50;99.90
1538;DHT22;12022;52.266;10.522;2022-08-20T06:32:09;23.50;99.90
1538;DHT22;12022;52.266;10.522;2022-08-20T06:34:36;23.50;99.90
1538;DHT22;12022;52.266;10.522;2022-08-20T06:37:19;23.60;99.90
1538;DHT22;12022;52.266;10.522;2022-08-20T06:39:46;23.60;99.90
1538;DHT22;12022;52.266;10.522;2022-08-20T06:42:13;23.60;99.90
1538;DHT22;12022;52.266;10.522;2022-08-20T06:44:47;23.60;99.90
1538;DHT22;12022;52.266;10.522;2022-08-20T06:47:19;23.60;99.90
1538;DHT22;12022;52.266;10.522;2022-08-20T06:49:46;23.60;99.90
1538;DHT22;12022;52.266;10.522;2022-08-20T06:52:14;23.60;99.90
1538;DHT22;12022;52.266;10.522;2022-08-20T06:54:44;23.70;99.90
1538;DHT22;12022;52.266;10.522;2022-08-20T06:57:11;23.70;99.90
1538;DHT22;12022;52.266;10.522;2022-08-20T06:59:38;23.70;99.90
1538;DHT22;12022;52.266;10.522;2022-08-20T07:02:05;23.70;99.90
1538;DHT22;12022;52.266;10.522;2022-08-20T07:04:33;23.80;99.90
1538;DHT22;12022;52.266;10.522;2022-08-20T07:07:00;23.70;99.90
1538;DHT22;12022;52.266;10.522;2022-08-20T07:09:27;23.60;99.90
1538;DHT22;12022;52.266;10.522;2022-08-20T07:11:54;23.60;99.90
1538;DHT22;12022;52.266;10.522;2022-08-20T07:14:22;23.60;99.90
1538;DHT22;12022;52.266;10.522;2022-08-20T07:16:49;23.60;99.90
1538;DHT22;12022;52.266;10.522;2022-08-20T07:19:16;23.60;99.90
1538;DHT22;12022;52.266;10.522;2022-08-20T07:21:43;23.70;99.90
1538;DHT22;12022;52.266;10.522;2022-08-20T07:24:10;23.80;99.90
1538;DHT22;12022;52.266;10.522;2022-08-20T07:26:38;23.80;99.90
1538;DHT22;12022;52.266;10.522;2022-08-20T07:29:05;23.80;99.90
1538;DHT22;12022;52.266;10.522;2022-08-20T07:31:32;23.90;99.90
1538;DHT22;12022;52.266;10.522;2022-08-20T07:34:17;24.00;99.90
1538;DHT22;12022;52.266;10.522;2022-08-20T07:36:45;24.10;99.90
1538;DHT22;12022;52.266;10.522;2022-08-20T07:39:14;24.30;99.90
1538;DHT22;12022;52.266;10.522;2022-08-20T07:41:42;24.50;99.90
1538;DHT22;12022;52.266;10.522;2022-08-20T07:44:22;24.50;99.90
1538;DHT22;12022;52.266;10.522;2022-08-20T07:46:59;24.60;99.90
1538;DHT22;12022;52.266;10.522;2022-08-20T07:49:28;24.70;99.90
1538;DHT22;12022;52.266;10.522;2022-08-20T07:51:55;24.80;99.90
1538;DHT22;12022;52.266;10.522;2022-08-20T07:54:22;24.80;99.90
1538;DHT22;12022;52.266;10.522;2022-08-20T07:56:49;24.90;99.90
1538;DHT22;12022;52.266;10.522;2022-08-20T07:59:16;24.90;99.90
1538;DHT22;12022;52.266;10.522;2022-08-20T08:01:43;25.00;99.90
1538;DHT22;12022;52.266;10.522;2022-08-20T08:04:10;25.10;99.90
1538;DHT22;12022;52.266;10.522;2022-08-20T08:06:37;25.20;99.90
1538;DHT22;12022;52.266;10.522;2022-08-20T08:09:13;25.30;99.90
1538;DHT22;12022;52.266;10.522;2022-08-20T08:11:47;25.40;99.90
1538;DHT22;12022;52.266;10.522;2022-08-20T08:14:18;25.50;99.90
1538;DHT22;12022;52.266;10.522;2022-08-20T08:16:49;25.70;99.90
1538;DHT22;12022;52.266;10.522;2022-08-20T08:19:17;25.80;99.90
1538;DHT22;12022;52.266;10.522;2022-08-20T08:21:44;26.00;99.90
1538;DHT22;12022;52.266;10.522;2022-08-20T08:24:11;26.20;99.90
1538;DHT22;12022;52.266;10.522;2022-08-20T08:26:46;26.30;99.90
1538;DHT22;12022;52.266;10.522;2022-08-20T08:29:15;26.40;99.90
1538;DHT22;12022;52.266;10.522;2022-08-20T08:31:42;26.50;99.90
1538;DHT22;12022;52.266;10.522;2022-08-20T08:34:10;26.70;99.90
1538;DHT22;12022;52.266;10.522;2022-08-20T08:36:37;26.80;99.90
1538;DHT22;12022;52.266;10.522;2022-08-20T08:39:05;27.00;99.90
1538;DHT22;12022;52.266;10.522;2022-08-20T08:41:51;27.10;99.90
1538;DHT22;12022;52.266;10.522;2022-08-20T08:44:24;27.10;99.90
1538;DHT22;12022;52.266;10.522;2022-08-20T08:46:59;27.10;99.90
1538;DHT22;12022;52.266;10.522;2022-08-20T08:49:30;27.20;99.90
1538;DHT22;12022;52.266;10.522;2022-08-20T08:52:06;27.30;99.90
1538;DHT22;12022;52.266;10.522;2022-08-20T08:54:34;27.40;99.90
1538;DHT22;12022;52.266;10.522;2022-08-20T08:57:02;27.40;99.90
1538;DHT22;12022;52.266;10.522;2022-08-20T08:59:29;27.40;99.90
1538;DHT22;12022;52.266;10.522;2022-08-20T09:02:22;27.50;99.90
1538;DHT22;12022;52.266;10.522;2022-08-20T09:04:53;27.30;99.90
1538;DHT22;12022;52.266;10.522;2022-08-20T09:07:24;27.20;99.90
1538;DHT22;12022;52.266;10.522;2022-08-20T09:09:52;27.10;99.90
1538;DHT22;12022;52.266;10.522;2022-08-20T09:12:21;27.20;99.90
1538;DHT22;12022;52.266;10.522;2022-08-20T09:14:49;27.40;99.90
1538;DHT22;12022;52.266;10.522;2022-08-20T09:17:20;27.60;99.90
1538;DHT22;12022;52.266;10.522;2022-08-20T09:19:47;27.80;99.90
1538;DHT22;12022;52.266;10.522;2022-08-20T09:22:17;27.90;99.90
1538;DHT22;12022;52.266;10.522;2022-08-20T09:24:45;28.00;99.90
1538;DHT22;12022;52.266;10.522;2022-08-20T09:27:12;28.10;99.90
1538;DHT22;12022;52.266;10.522;2022-08-20T09:29:39;28.20;99.90
1538;DHT22;12022;52.266;10.522;2022-08-20T09:32:13;28.50;99.90
1538;DHT22;12022;52.266;10.522;2022-08-20T09:34:48;28.80;99.90
1538;DHT22;12022;52.266;10.522;2022-08-20T09:37:18;29.00;99.90
1538;DHT22;12022;52.266;10.522;2022-08-20T09:39:46;28.90;99.90
1538;DHT22;12022;52.266;10.522;2022-08-20T09:42:16;28.70;99.90
1538;DHT22;12022;52.266;10.522;2022-08-20T09:44:43;28.60;99.90
1538;DHT22;12022;52.266;10.522;2022-08-20T09:47:10;28.70;99.90
1538;DHT22;12022;52.266;10.522;2022-08-20T09:49:38;28.80;99.90
1538;DHT22;12022;52.266;10.522;2022-08-20T09:52:07;28.90;99.90
1538;DHT22;12022;52.266;10.522;2022-08-20T09:54:36;28.80;99.90
1538;DHT22;12022;52.266;10.522;2022-08-20T09:57:06;28.80;99.90
1538;DHT22;12022;52.266;10.522;2022-08-20T09:59:35;28.60;99.90
1538;DHT22;12022;52.266;10.522;2022-08-20T10:02:03;28.30;99.90
1538;DHT22;12022;52.266;10.522;2022-08-20T10:04:30;28.30;99.90
1538;DHT22;12022;52.266;10.522;2022-08-20T10:06:57;28.30;99.90
1538;DHT22;12022;52.266;10.522;2022-08-20T10:09:24;28.40;99.90
1538;DHT22;12022;52.266;10.522;2022-08-20T10:11:51;28.40;99.90
1538;DHT22;12022;52.266;10.522;2022-08-20T10:14:18;28.50;99.90
1538;DHT22;12022;52.266;10.522;2022-08-20T10:16:45;28.50;99.90
1538;DHT22;12022;52.266;10.522;2022-08-20T10:19:12;28.50;99.90
1538;DHT22;12022;52.266;10.522;2022-08-20T10:21:39;28.50;99.90
1538;DHT22;12022;52.266;10.522;2022-08-20T10:24:06;28.50;99.90
1538;DHT22;12022;52.266;10.522;2022-08-20T10:26:33;28.60;99.90
1538;DHT22;12022;52.266;10.522;2022-08-20T10:28:59;28.70;99.90
1538;DHT22;12022;52.266;10.522;2022-08-20T10:31:26;28.70;99.90
1538;DHT22;12022;52.266;10.522;2022-08-20T10:33:54;28.80;99.90
1538;DHT22;12022;52.266;10.522;2022-08-20T10:36:22;28.90;99.90
1538;DHT22;12022;52.266;10.522;2022-08-20T10:38:49;29.10;99.90
1538;DHT22;12022;52.266;10.522;2022-08-20T10:41:16;29.30;99.90
1538;DHT22;12022;52.266;10.522;2022-08-20T10:43:43;29.60;99.90
1538;DHT22;12022;52.266;10.522;2022-08-20T10:46:10;30.00;99.90
1538;DHT22;12022;52.266;10.522;2022-08-20T10:48:37;30.30;99.90
1538;DHT22;12022;52.266;10.522;2022-08-20T10:51:05;30.60;99.30
1538;DHT22;12022;52.266;10.522;2022-08-20T10:53:32;30.70;98.70
1538;DHT22;12022;52.266;10.522;2022-08-20T10:55:59;30.80;98.30
1538;DHT22;12022;52.266;10.522;2022-08-20T10:58:27;30.70;97.50
1538;DHT22;12022;52.266;10.522;2022-08-20T11:01:06;30.50;97.60
1538;DHT22;12022;52.266;10.522;2022-08-20T11:03:32;30.30;97.60
1538;DHT22;12022;52.266;10.522;2022-08-20T11:06:00;30.20;98.00
1538;DHT22;12022;52.266;10.522;2022-08-20T11:08:27;29.90;97.70
1538;DHT22;12022;52.266;10.522;2022-08-20T11:11:02;29.70;98.40
1538;DHT22;12022;52.266;10.522;2022-08-20T11:13:29;29.70;98.90
1538;DHT22;12022;52.266;10.522;2022-08-20T11:15:56;29.80;98.50
1538;DHT22;12022;52.266;10.522;2022-08-20T11:18:23;29.90;98.70
1538;DHT22;12022;52.266;10.522;2022-08-20T11:20:50;30.00;98.10
1538;DHT22;12022;52.266;10.522;2022-08-20T11:23:18;30.10;98.50
1538;DHT22;12022;52.266;10.522;2022-08-20T11:25:45;30.30;98.20
1538;DHT22;12022;52.266;10.522;2022-08-20T11:28:12;30.40;98.10
1538;DHT22;12022;52.266;10.522;2022-08-20T11:30:40;30.50;97.90
1538;DHT22;12022;52.266;10.522;2022-08-20T11:33:07;30.70;97.90
1538;DHT22;12022;52.266;10.522;2022-08-20T11:35:35;30.90;97.50
1538;DHT22;12022;52.266;10.522;2022-08-20T11:38:17;31.00;97.60
1538;DHT22;12022;52.266;10.522;2022-08-20T11:40:44;31.30;97.00
1538;DHT22;12022;52.266;10.522;2022-08-20T11:43:13;31.60;96.50
1538;DHT22;12022;52.266;10.522;2022-08-20T11:45:45;31.70;96.00
1538;DHT22;12022;52.266;10.522;2022-08-20T11:48:12;31.60;95.20
1538;DHT22;12022;52.266;10.522;2022-08-20T11:50:40;31.40;95.60
1538;DHT22;12022;52.266;10.522;2022-08-20T11:53:07;31.20;95.40
1538;DHT22;12022;52.266;10.522;2022-08-20T11:55:35;31.00;95.30
1538;DHT22;12022;52.266;10.522;2022-08-20T11:58:04;30.70;95.50
1538;DHT22;12022;52.266;10.522;2022-08-20T12:00:31;30.70;96.00
1538;DHT22;12022;52.266;10.522;2022-08-20T12:03:00;30.60;95.20
1538;DHT22;12022;52.266;10.522;2022-08-20T12:05:28;30.50;95.80
1538;DHT22;12022;52.266;10.522;2022-08-20T12:07:56;30.60;96.00
1538;DHT22;12022;52.266;10.522;2022-08-20T12:10:26;30.80;95.90
1538;DHT22;12022;52.266;10.522;2022-08-20T12:12:54;30.90;95.50
1538;DHT22;12022;52.266;10.522;2022-08-20T12:15:23;31.00;94.70
1538;DHT22;12022;52.266;10.522;2022-08-20T12:17:51;31.10;95.00
1538;DHT22;12022;52.266;10.522;2022-08-20T12:20:18;31.30;94.90
1538;DHT22;12022;52.266;10.522;2022-08-20T12:22:45;31.30;94.20
1538;DHT22;12022;52.266;10.522;2022-08-20T12:25:12;31.40;94.20
1538;DHT22;12022;52.266;10.522;2022-08-20T12:27:40;31.40;94.10
1538;DHT22;12022;52.266;10.522;2022-08-20T12:30:11;31.30;93.70
1538;DHT22;12022;52.266;10.522;2022-08-20T12:32:39;31.00;93.90
1538;DHT22;12022;52.266;10.522;2022-08-20T12:35:07;30.90;94.20
1538;DHT22;12022;52.266;10.522;2022-08-20T12:37:35;30.80;94.40
1538;DHT22;12022;52.266;10.522;2022-08-20T12:40:06;30.90;94.70
1538;DHT22;12022;52.266;10.522;2022-08-20T12:42:33;31.20;94.50
1538;DHT22;12022;52.266;10.522;2022-08-20T12:45:00;31.30;93.80
1538;DHT22;12022;52.266;10.522;2022-08-20T12:47:30;31.20;93.70
1538;DHT22;12022;52.266;10.522;2022-08-20T12:50:10;31.00;93.70
1538;DHT22;12022;52.266;10.522;2022-08-20T12:52:38;30.80;93.70
1538;DHT22;12022;52.266;10.522;2022-08-20T12:55:07;30.20;94.30
1538;DHT22;12022;52.266;10.522;2022-08-20T12:57:40;29.70;96.80
1538;DHT22;12022;52.266;10.522;2022-08-20T13:00:18;28.20;99.90
1538;DHT22;12022;52.266;10.522;2022-08-20T13:02:50;26.90;99.90
1538;DHT22;12022;52.266;10.522;2022-08-20T13:05:17;26.00;99.90
1538;DHT22;12022;52.266;10.522;2022-08-20T13:07:45;25.20;99.90
1538;DHT22;12022;52.266;10.522;2022-08-20T13:10:17;24.50;99.90
1538;DHT22;12022;52.266;10.522;2022-08-20T13:12:44;24.00;99.90
1538;DHT22;12022;52.266;10.522;2022-08-20T13:15:11;23.70;99.90
1538;DHT22;12022;52.266;10.522;2022-08-20T13:17:38;23.60;99.90
1538;DHT22;12022;52.266;10.522;2022-08-20T13:20:08;23.60;99.90
1538;DHT22;12022;52.266;10.522;2022-08-20T13:22:35;23.80;99.90
1538;DHT22;12022;52.266;10.522;2022-08-20T13:25:03;24.10;99.90
1538;DHT22;12022;52.266;10.522;2022-08-20T13:27:30;24.40;99.90
1538;DHT22;12022;52.266;10.522;2022-08-20T13:29:57;24.60;99.90
1538;DHT22;12022;52.266;10.522;2022-08-20T13:32:25;24.80;99.90
1538;DHT22;12022;52.266;10.522;2022-08-20T13:34:52;24.90;99.90
1538;DHT22;12022;52.266;10.522;2022-08-20T13:37:24;25.10;99.90
1538;DHT22;12022;52.266;10.522;2022-08-20T13:39:52;25.40;99.90
1538;DHT22;12022;52.266;10.522;2022-08-20T13:42:20;25.60;99.90
1538;DHT22;12022;52.266;10.522;2022-08-20T13:44:47;25.80;99.90
1538;DHT22;12022;52.266;10.522;2022-08-20T13:47:26;25.80;99.90
1538;DHT22;12022;52.266;10.522;2022-08-20T13:49:57;25.90;99.90
1538;DHT22;12022;52.266;10.522;2022-08-20T13:52:24;25.90;99.90
1538;DHT22;12022;52.266;10.522;2022-08-20T13:54:53;25.80;99.90
1538;DHT22;12022;52.266;10.522;2022-08-20T13:57:22;25.80;99.90
1538;DHT22;12022;52.266;10.522;2022-08-20T13:59:52;25.90;99.90
1538;DHT22;12022;52.266;10.522;2022-08-20T14:02:20;26.00;99.90
1538;DHT22;12022;52.266;10.522;2022-08-20T14:04:48;26.20;99.90
1538;DHT22;12022;52.266;10.522;2022-08-20T14:07:18;26.20;99.90
1538;DHT22;12022;52.266;10.522;2022-08-20T14:09:48;26.20;99.90
1538;DHT22;12022;52.266;10.522;2022-08-20T14:12:15;26.10;99.90
1538;DHT22;12022;52.266;10.522;2022-08-20T14:14:43;26.20;99.90
1538;DHT22;12022;52.266;10.522;2022-08-20T14:17:29;26.30;99.90
1538;DHT22;12022;52.266;10.522;2022-08-20T14:20:14;26.30;99.90
1538;DHT22;12022;52.266;10.522;2022-08-20T14:22:43;26.30;99.90
1538;DHT22;12022;52.266;10.522;2022-08-20T14:25:12;26.40;99.90
1538;DHT22;12022;52.266;10.522;2022-08-20T14:27:40;26.30;99.90
1538;DHT22;12022;52.266;10.522;2022-08-20T14:30:12;26.30;99.90
1538;DHT22;12022;52.266;10.522;2022-08-20T14:32:39;26.20;99.90
1538;DHT22;12022;52.266;10.522;2022-08-20T14:35:07;26.10;99.90
1538;DHT22;12022;52.266;10.522;2022-08-20T14:37:37;26.10;99.90
1538;DHT22;12022;52.266;10.522;2022-08-20T14:40:08;26.00;99.90
1538;DHT22;12022;52.266;10.522;2022-08-20T14:42:35;26.00;99.90
1538;DHT22;12022;52.266;10.522;2022-08-20T14:45:04;25.90;99.90
1538;DHT22;12022;52.266;10.522;2022-08-20T14:47:38;25.80;99.90
1538;DHT22;12022;52.266;10.522;2022-08-20T14:50:10;25.70;99.90
1538;DHT22;12022;52.266;10.522;2022-08-20T14:52:37;25.70;99.90
1538;DHT22;12022;52.266;10.522;2022-08-20T14:55:07;25.60;99.90
1538;DHT22;12022;52.266;10.522;2022-08-20T14:57:38;25.60;99.90
1538;DHT22;12022;52.266;10.522;2022-08-20T15:00:09;25.70;99.90
1538;DHT22;12022;52.266;10.522;2022-08-20T15:02:37;25.70;99.90
1538;DHT22;12022;52.266;10.522;2022-08-20T15:05:05;25.70;99.90
1538;DHT22;12022;52.266;10.522;2022-08-20T15:07:36;25.90;99.90
1538;DHT22;12022;52.266;10.522;2022-08-20T15:10:06;26.00;99.90
1538;DHT22;12022;52.266;10.522;2022-08-20T15:12:33;26.00;99.90
1538;DHT22;12022;52.266;10.522;2022-08-20T15:15:02;25.80;99.90
1538;DHT22;12022;52.266;10.522;2022-08-20T15:17:44;25.70;99.90
1538;DHT22;12022;52.266;10.522;2022-08-20T15:20:12;25.70;99.90
1538;DHT22;12022;52.266;10.522;2022-08-20T15:22:47;25.60;99.90
1538;DHT22;12022;52.266;10.522;2022-08-20T15:25:17;25.60;99.90
1538;DHT22;12022;52.266;10.522;2022-08-20T15:27:46;25.50;99.90
1538;DHT22;12022;52.266;10.522;2022-08-20T15:30:19;25.50;99.90
1538;DHT22;12022;52.266;10.522;2022-08-20T15:32:46;25.50;99.90
1538;DHT22;12022;52.266;10.522;2022-08-20T15:35:23;25.50;99.90
1538;DHT22;12022;52.266;10.522;2022-08-20T15:37:51;25.50;99.90
1538;DHT22;12022;52.266;10.522;2022-08-20T15:40:21;25.50;99.90
1538;DHT22;12022;52.266;10.522;2022-08-20T15:42:54;25.50;99.90
1538;DHT22;12022;52.266;10.522;2022-08-20T15:45:22;25.50;99.90
1538;DHT22;12022;52.266;10.522;2022-08-20T16:10:46;25.20;99.90
1538;DHT22;12022;52.266;10.522;2022-08-20T16:13:30;25.20;99.90
1538;DHT22;12022;52.266;10.522;2022-08-20T16:15:59;25.30;99.90